sensor_id;sensor_type;location;lat;lon;timestamp;P1;durP1;ratioP1;P2;durP2;ratioP2
14292;SDS011;62290;59.420;17.842;2022-09-24T00:01:40;3.15;;;2.00;;
14292;SDS011;62290;59.420;17.842;2022-09-24T00:04:09;4.78;;;2.42;;
14292;SDS011;62290;59.420;17.842;2022-09-24T00:06:39;3.38;;;1.63;;
14292;SDS011;62290;59.420;17.842;2022-09-24T00:09:10;6.95;;;2.35;;
14292;SDS011;62290;59.420;17.842;2022-09-24T00:11:38;3.92;;;2.08;;
14292;SDS011;62290;59.420;17.842;2022-09-24T00:14:08;2.38;;;1.73;;
14292;SDS011;62290;59.420;17.842;2022-09-24T00:16:36;4.68;;;2.13;;
14292;SDS011;62290;59.420;17.842;2022-09-24T00:19:08;3.60;;;2.08;;
14292;SDS011;62290;59.420;17.842;2022-09-24T00:21:37;4.35;;;2.00;;
14292;SDS011;62290;59.420;17.842;2022-09-24T00:24:07;3.40;;;1.42;;
14292;SDS011;62290;59.420;17.842;2022-09-24T00:26:36;5.53;;;1.85;;
14292;SDS011;62290;59.420;17.842;2022-09-24T00:29:16;4.32;;;2.05;;
14292;SDS011;62290;59.420;17.842;2022-09-24T00:31:46;3.38;;;1.88;;
14292;SDS011;62290;59.420;17.842;2022-09-24T00:34:16;3.25;;;1.48;;
14292;SDS011;62290;59.420;17.842;2022-09-24T00:36:45;3.38;;;2.10;;
14292;SDS011;62290;59.420;17.842;2022-09-24T00:39:13;4.28;;;2.03;;
14292;SDS011;62290;59.420;17.842;2022-09-24T00:41:42;3.88;;;1.85;;
14292;SDS011;62290;59.420;17.842;2022-09-24T00:47:22;3.83;;;1.83;;
14292;SDS011;62290;59.420;17.842;2022-09-24T00:49:57;3.08;;;1.85;;
14292;SDS011;62290;59.420;17.842;2022-09-24T00:52:31;4.32;;;1.70;;
14292;SDS011;62290;59.420;17.842;2022-09-24T00:55:00;2.88;;;1.60;;
14292;SDS011;62290;59.420;17.842;2022-09-24T00:57:28;4.07;;;1.80;;
14292;SDS011;62290;59.420;17.842;2022-09-24T00:59:57;5.28;;;1.83;;
14292;SDS011;62290;59.420;17.842;2022-09-24T01:02:25;2.72;;;1.60;;
14292;SDS011;62290;59.420;17.842;2022-09-24T01:04:53;2.60;;;2.00;;
14292;SDS011;62290;59.420;17.842;2022-09-24T01:07:23;2.75;;;2.00;;
14292;SDS011;62290;59.420;17.842;2022-09-24T01:09:51;3.17;;;1.85;;
14292;SDS011;62290;59.420;17.842;2022-09-24T01:12:22;2.28;;;1.48;;
14292;SDS011;62290;59.420;17.842;2022-09-24T01:15:02;4.22;;;1.75;;
14292;SDS011;62290;59.420;17.842;2022-09-24T01:17:38;1.83;;;1.63;;
14292;SDS011;62290;59.420;17.842;2022-09-24T01:20:20;2.75;;;1.92;;
14292;SDS011;62290;59.420;17.842;2022-09-24T01:23:12;2.72;;;1.98;;
14292;SDS011;62290;59.420;17.842;2022-09-24T01:26:06;4.10;;;1.38;;
14292;SDS011;62290;59.420;17.842;2022-09-24T01:28:49;3.67;;;1.90;;
14292;SDS011;62290;59.420;17.842;2022-09-24T01:31:34;4.22;;;1.90;;
14292;SDS011;62290;59.420;17.842;2022-09-24T01:34:07;5.07;;;1.63;;
14292;SDS011;62290;59.420;17.842;2022-09-24T01:36:37;3.45;;;1.80;;
14292;SDS011;62290;59.420;17.842;2022-09-24T01:39:07;3.00;;;2.08;;
14292;SDS011;62290;59.420;17.842;2022-09-24T01:41:36;4.38;;;1.90;;
14292;SDS011;62290;59.420;17.842;2022-09-24T01:44:06;3.33;;;1.60;;
14292;SDS011;62290;59.420;17.842;2022-09-24T01:46:37;3.40;;;1.98;;
14292;SDS011;62290;59.420;17.842;2022-09-24T01:49:06;3.78;;;1.52;;
14292;SDS011;62290;59.420;17.842;2022-09-24T01:51:36;3.47;;;1.83;;
14292;SDS011;62290;59.420;17.842;2022-09-24T01:54:10;2.13;;;1.67;;
14292;SDS011;62290;59.420;17.842;2022-09-24T01:56:48;6.68;;;2.00;;
14292;SDS011;62290;59.420;17.842;2022-09-24T01:59:23;5.70;;;2.22;;
14292;SDS011;62290;59.420;17.842;2022-09-24T02:01:57;5.07;;;2.25;;
14292;SDS011;62290;59.420;17.842;2022-09-24T02:04:32;5.35;;;1.77;;
14292;SDS011;62290;59.420;17.842;2022-09-24T02:07:06;3.53;;;1.73;;
14292;SDS011;62290;59.420;17.842;2022-09-24T02:09:42;6.00;;;2.28;;
14292;SDS011;62290;59.420;17.842;2022-09-24T02:12:11;4.82;;;2.10;;
14292;SDS011;62290;59.420;17.842;2022-09-24T02:14:44;4.85;;;1.60;;
14292;SDS011;62290;59.420;17.842;2022-09-24T02:17:21;5.68;;;1.80;;
14292;SDS011;62290;59.420;17.842;2022-09-24T02:19:52;3.38;;;2.03;;
14292;SDS011;62290;59.420;17.842;2022-09-24T02:22:23;3.08;;;1.80;;
14292;SDS011;62290;59.420;17.842;2022-09-24T02:24:52;4.18;;;1.77;;
14292;SDS011;62290;59.420;17.842;2022-09-24T02:27:22;2.90;;;1.60;;
14292;SDS011;62290;59.420;17.842;2022-09-24T02:29:54;3.88;;;2.08;;
14292;SDS011;62290;59.420;17.842;2022-09-24T02:32:23;5.38;;;1.88;;
14292;SDS011;62290;59.420;17.842;2022-09-24T02:34:57;3.55;;;1.90;;
14292;SDS011;62290;59.420;17.842;2022-09-24T02:37:28;2.30;;;1.92;;
14292;SDS011;62290;59.420;17.842;2022-09-24T02:40:01;3.33;;;1.80;;
14292;SDS011;62290;59.420;17.842;2022-09-24T02:42:31;5.05;;;2.50;;
14292;SDS011;62290;59.420;17.842;2022-09-24T02:44:59;2.67;;;1.60;;
14292;SDS011;62290;59.420;17.842;2022-09-24T02:47:29;2.15;;;1.60;;
14292;SDS011;62290;59.420;17.842;2022-09-24T02:49:57;3.17;;;1.80;;
14292;SDS011;62290;59.420;17.842;2022-09-24T02:52:25;3.20;;;1.50;;
14292;SDS011;62290;59.420;17.842;2022-09-24T02:54:53;2.95;;;1.52;;
14292;SDS011;62290;59.420;17.842;2022-09-24T02:57:21;2.50;;;1.50;;
14292;SDS011;62290;59.420;17.842;2022-09-24T02:59:49;2.38;;;1.75;;
14292;SDS011;62290;59.420;17.842;2022-09-24T03:02:17;2.92;;;1.80;;
14292;SDS011;62290;59.420;17.842;2022-09-24T03:04:47;3.00;;;1.52;;
14292;SDS011;62290;59.420;17.842;2022-09-24T03:07:15;2.42;;;1.60;;
14292;SDS011;62290;59.420;17.842;2022-09-24T03:09:43;4.28;;;1.70;;
14292;SDS011;62290;59.420;17.842;2022-09-24T03:12:11;2.42;;;1.48;;
14292;SDS011;62290;59.420;17.842;2022-09-24T03:14:39;5.55;;;1.70;;
14292;SDS011;62290;59.420;17.842;2022-09-24T03:17:07;1.90;;;1.40;;
14292;SDS011;62290;59.420;17.842;2022-09-24T03:19:35;2.17;;;1.60;;
14292;SDS011;62290;59.420;17.842;2022-09-24T03:22:04;3.63;;;1.73;;
14292;SDS011;62290;59.420;17.842;2022-09-24T03:24:32;2.47;;;1.70;;
14292;SDS011;62290;59.420;17.842;2022-09-24T03:27:00;5.38;;;1.67;;
14292;SDS011;62290;59.420;17.842;2022-09-24T03:29:28;3.55;;;1.52;;
14292;SDS011;62290;59.420;17.842;2022-09-24T03:32:09;2.47;;;1.52;;
14292;SDS011;62290;59.420;17.842;2022-09-24T03:34:37;3.88;;;2.25;;
14292;SDS011;62290;59.420;17.842;2022-09-24T03:37:07;3.03;;;1.75;;
14292;SDS011;62290;59.420;17.842;2022-09-24T03:39:35;2.78;;;1.50;;
14292;SDS011;62290;59.420;17.842;2022-09-24T03:42:03;3.40;;;1.67;;
14292;SDS011;62290;59.420;17.842;2022-09-24T03:44:30;2.65;;;1.70;;
14292;SDS011;62290;59.420;17.842;2022-09-24T03:46:58;3.20;;;1.35;;
14292;SDS011;62290;59.420;17.842;2022-09-24T03:49:26;4.85;;;1.67;;
14292;SDS011;62290;59.420;17.842;2022-09-24T03:51:55;2.97;;;1.60;;
14292;SDS011;62290;59.420;17.842;2022-09-24T03:54:24;2.15;;;1.52;;
14292;SDS011;62290;59.420;17.842;2022-09-24T03:56:52;3.75;;;1.60;;
14292;SDS011;62290;59.420;17.842;2022-09-24T03:59:20;2.88;;;1.77;;
14292;SDS011;62290;59.420;17.842;2022-09-24T04:01:48;6.63;;;2.00;;
14292;SDS011;62290;59.420;17.842;2022-09-24T04:04:16;2.42;;;1.77;;
14292;SDS011;62290;59.420;17.842;2022-09-24T04:06:44;3.08;;;1.52;;
14292;SDS011;62290;59.420;17.842;2022-09-24T04:09:12;3.15;;;1.63;;
14292;SDS011;62290;59.420;17.842;2022-09-24T04:11:41;3.60;;;1.42;;
14292;SDS011;62290;59.420;17.842;2022-09-24T04:14:10;2.80;;;1.70;;
14292;SDS011;62290;59.420;17.842;2022-09-24T04:16:37;3.67;;;1.48;;
14292;SDS011;62290;59.420;17.842;2022-09-24T04:19:05;2.97;;;1.60;;
14292;SDS011;62290;59.420;17.842;2022-09-24T04:21:34;2.20;;;1.60;;
14292;SDS011;62290;59.420;17.842;2022-09-24T04:24:01;2.42;;;1.33;;
14292;SDS011;62290;59.420;17.842;2022-09-24T04:26:29;3.17;;;1.30;;
14292;SDS011;62290;59.420;17.842;2022-09-24T04:28:59;1.77;;;1.58;;
14292;SDS011;62290;59.420;17.842;2022-09-24T04:31:27;3.17;;;1.42;;
14292;SDS011;62290;59.420;17.842;2022-09-24T04:33:55;5.07;;;1.60;;
14292;SDS011;62290;59.420;17.842;2022-09-24T04:36:23;5.40;;;1.75;;
14292;SDS011;62290;59.420;17.842;2022-09-24T04:38:51;1.98;;;1.35;;
14292;SDS011;62290;59.420;17.842;2022-09-24T04:41:19;1.73;;;1.55;;
14292;SDS011;62290;59.420;17.842;2022-09-24T04:43:47;2.45;;;1.30;;
14292;SDS011;62290;59.420;17.842;2022-09-24T04:46:18;3.05;;;1.52;;
14292;SDS011;62290;59.420;17.842;2022-09-24T04:48:46;2.03;;;1.40;;
14292;SDS011;62290;59.420;17.842;2022-09-24T04:51:14;2.88;;;1.55;;
14292;SDS011;62290;59.420;17.842;2022-09-24T04:53:43;3.33;;;1.67;;
14292;SDS011;62290;59.420;17.842;2022-09-24T04:56:13;2.42;;;1.52;;
14292;SDS011;62290;59.420;17.842;2022-09-24T04:58:41;3.50;;;1.42;;
14292;SDS011;62290;59.420;17.842;2022-09-24T05:01:09;4.05;;;1.60;;
14292;SDS011;62290;59.420;17.842;2022-09-24T05:03:40;3.25;;;1.42;;
14292;SDS011;62290;59.420;17.842;2022-09-24T05:06:08;2.58;;;1.50;;
14292;SDS011;62290;59.420;17.842;2022-09-24T05:08:36;4.22;;;1.13;;
14292;SDS011;62290;59.420;17.842;2022-09-24T05:11:04;2.25;;;1.55;;
14292;SDS011;62290;59.420;17.842;2022-09-24T05:13:32;1.88;;;1.35;;
14292;SDS011;62290;59.420;17.842;2022-09-24T05:16:00;2.22;;;1.38;;
14292;SDS011;62290;59.420;17.842;2022-09-24T05:18:29;2.90;;;1.38;;
14292;SDS011;62290;59.420;17.842;2022-09-24T05:20:58;4.60;;;1.92;;
14292;SDS011;62290;59.420;17.842;2022-09-24T05:23:26;3.38;;;1.35;;
14292;SDS011;62290;59.420;17.842;2022-09-24T05:25:54;4.78;;;1.48;;
14292;SDS011;62290;59.420;17.842;2022-09-24T05:28:39;2.47;;;1.52;;
14292;SDS011;62290;59.420;17.842;2022-09-24T05:31:08;1.88;;;1.20;;
14292;SDS011;62290;59.420;17.842;2022-09-24T05:33:36;3.38;;;1.60;;
14292;SDS011;62290;59.420;17.842;2022-09-24T05:36:06;3.88;;;1.85;;
14292;SDS011;62290;59.420;17.842;2022-09-24T05:38:34;1.88;;;1.50;;
14292;SDS011;62290;59.420;17.842;2022-09-24T05:41:06;3.15;;;1.63;;
14292;SDS011;62290;59.420;17.842;2022-09-24T05:43:34;2.03;;;1.35;;
14292;SDS011;62290;59.420;17.842;2022-09-24T05:46:03;7.28;;;1.60;;
14292;SDS011;62290;59.420;17.842;2022-09-24T05:48:31;3.38;;;1.52;;
14292;SDS011;62290;59.420;17.842;2022-09-24T05:50:59;2.35;;;1.50;;
14292;SDS011;62290;59.420;17.842;2022-09-24T05:53:30;3.20;;;1.60;;
14292;SDS011;62290;59.420;17.842;2022-09-24T05:55:58;3.80;;;1.85;;
14292;SDS011;62290;59.420;17.842;2022-09-24T05:58:26;1.60;;;1.30;;
14292;SDS011;62290;59.420;17.842;2022-09-24T06:00:54;3.55;;;1.70;;
14292;SDS011;62290;59.420;17.842;2022-09-24T06:03:21;7.28;;;1.20;;
14292;SDS011;62290;59.420;17.842;2022-09-24T06:05:49;2.47;;;1.75;;
14292;SDS011;62290;59.420;17.842;2022-09-24T06:08:18;4.45;;;1.50;;
14292;SDS011;62290;59.420;17.842;2022-09-24T06:10:48;2.47;;;1.80;;
14292;SDS011;62290;59.420;17.842;2022-09-24T06:13:17;3.95;;;1.48;;
14292;SDS011;62290;59.420;17.842;2022-09-24T06:15:46;2.08;;;1.48;;
14292;SDS011;62290;59.420;17.842;2022-09-24T06:18:14;1.48;;;1.10;;
14292;SDS011;62290;59.420;17.842;2022-09-24T06:20:42;4.15;;;1.15;;
14292;SDS011;62290;59.420;17.842;2022-09-24T06:23:10;3.17;;;1.40;;
14292;SDS011;62290;59.420;17.842;2022-09-24T06:25:38;3.30;;;1.67;;
14292;SDS011;62290;59.420;17.842;2022-09-24T06:28:07;3.55;;;1.40;;
14292;SDS011;62290;59.420;17.842;2022-09-24T06:30:36;1.58;;;1.25;;
14292;SDS011;62290;59.420;17.842;2022-09-24T06:33:05;2.42;;;1.25;;
14292;SDS011;62290;59.420;17.842;2022-09-24T06:35:35;3.92;;;1.73;;
14292;SDS011;62290;59.420;17.842;2022-09-24T06:38:04;1.48;;;1.00;;
14292;SDS011;62290;59.420;17.842;2022-09-24T06:40:33;1.85;;;1.38;;
14292;SDS011;62290;59.420;17.842;2022-09-24T06:43:03;4.32;;;1.48;;
14292;SDS011;62290;59.420;17.842;2022-09-24T06:45:33;4.07;;;1.63;;
14292;SDS011;62290;59.420;17.842;2022-09-24T06:48:02;2.03;;;1.35;;
14292;SDS011;62290;59.420;17.842;2022-09-24T06:50:32;2.70;;;1.58;;
14292;SDS011;62290;59.420;17.842;2022-09-24T06:53:03;6.82;;;1.42;;
14292;SDS011;62290;59.420;17.842;2022-09-24T06:55:32;5.93;;;1.83;;
14292;SDS011;62290;59.420;17.842;2022-09-24T06:58:00;1.95;;;1.48;;
14292;SDS011;62290;59.420;17.842;2022-09-24T07:00:30;4.75;;;1.50;;
14292;SDS011;62290;59.420;17.842;2022-09-24T07:02:59;3.42;;;1.38;;
14292;SDS011;62290;59.420;17.842;2022-09-24T07:05:27;1.77;;;1.08;;
14292;SDS011;62290;59.420;17.842;2022-09-24T07:07:56;2.10;;;1.30;;
14292;SDS011;62290;59.420;17.842;2022-09-24T07:10:24;3.53;;;1.40;;
14292;SDS011;62290;59.420;17.842;2022-09-24T07:12:52;5.18;;;1.70;;
14292;SDS011;62290;59.420;17.842;2022-09-24T07:15:20;5.13;;;1.80;;
14292;SDS011;62290;59.420;17.842;2022-09-24T07:17:48;3.30;;;1.52;;
14292;SDS011;62290;59.420;17.842;2022-09-24T07:20:22;4.13;;;1.65;;
14292;SDS011;62290;59.420;17.842;2022-09-24T07:22:53;4.30;;;1.50;;
14292;SDS011;62290;59.420;17.842;2022-09-24T07:25:21;1.90;;;1.42;;
14292;SDS011;62290;59.420;17.842;2022-09-24T07:27:50;4.32;;;1.40;;
14292;SDS011;62290;59.420;17.842;2022-09-24T07:30:18;3.08;;;1.50;;
14292;SDS011;62290;59.420;17.842;2022-09-24T07:32:46;2.78;;;1.38;;
14292;SDS011;62290;59.420;17.842;2022-09-24T07:35:14;3.42;;;1.77;;
14292;SDS011;62290;59.420;17.842;2022-09-24T07:37:44;3.35;;;1.40;;
14292;SDS011;62290;59.420;17.842;2022-09-24T07:40:12;2.17;;;1.50;;
14292;SDS011;62290;59.420;17.842;2022-09-24T07:42:44;2.58;;;1.20;;
14292;SDS011;62290;59.420;17.842;2022-09-24T07:45:13;4.13;;;1.30;;
14292;SDS011;62290;59.420;17.842;2022-09-24T07:47:42;3.55;;;1.60;;
14292;SDS011;62290;59.420;17.842;2022-09-24T07:50:10;3.35;;;1.55;;
14292;SDS011;62290;59.420;17.842;2022-09-24T07:52:39;3.65;;;1.55;;
14292;SDS011;62290;59.420;17.842;2022-09-24T07:55:08;4.95;;;1.42;;
14292;SDS011;62290;59.420;17.842;2022-09-24T07:57:36;4.15;;;1.50;;
14292;SDS011;62290;59.420;17.842;2022-09-24T08:00:05;3.67;;;1.50;;
14292;SDS011;62290;59.420;17.842;2022-09-24T08:02:36;3.28;;;1.30;;
14292;SDS011;62290;59.420;17.842;2022-09-24T08:05:05;3.83;;;1.70;;
14292;SDS011;62290;59.420;17.842;2022-09-24T08:07:33;2.63;;;1.58;;
14292;SDS011;62290;59.420;17.842;2022-09-24T08:10:01;5.18;;;1.90;;
14292;SDS011;62290;59.420;17.842;2022-09-24T08:12:31;3.70;;;1.50;;
14292;SDS011;62290;59.420;17.842;2022-09-24T08:14:59;2.17;;;1.60;;
14292;SDS011;62290;59.420;17.842;2022-09-24T08:17:27;2.70;;;1.48;;
14292;SDS011;62290;59.420;17.842;2022-09-24T08:19:55;2.15;;;1.75;;
14292;SDS011;62290;59.420;17.842;2022-09-24T08:22:24;2.25;;;1.60;;
14292;SDS011;62290;59.420;17.842;2022-09-24T08:24:52;2.42;;;1.55;;
14292;SDS011;62290;59.420;17.842;2022-09-24T08:27:20;3.40;;;1.83;;
14292;SDS011;62290;59.420;17.842;2022-09-24T08:29:50;3.05;;;1.50;;
14292;SDS011;62290;59.420;17.842;2022-09-24T08:32:18;4.03;;;1.40;;
14292;SDS011;62290;59.420;17.842;2022-09-24T08:34:46;3.53;;;1.83;;
14292;SDS011;62290;59.420;17.842;2022-09-24T08:37:14;4.93;;;1.73;;
14292;SDS011;62290;59.420;17.842;2022-09-24T08:39:42;5.25;;;1.60;;
14292;SDS011;62290;59.420;17.842;2022-09-24T08:42:10;4.20;;;1.65;;
14292;SDS011;62290;59.420;17.842;2022-09-24T08:44:45;6.20;;;1.42;;
14292;SDS011;62290;59.420;17.842;2022-09-24T08:47:35;3.08;;;1.13;;
14292;SDS011;62290;59.420;17.842;2022-09-24T08:50:11;3.03;;;1.13;;
14292;SDS011;62290;59.420;17.842;2022-09-24T08:52:48;2.15;;;1.10;;
14292;SDS011;62290;59.420;17.842;2022-09-24T08:55:30;1.58;;;1.08;;
14292;SDS011;62290;59.420;17.842;2022-09-24T08:58:14;3.45;;;1.20;;
14292;SDS011;62290;59.420;17.842;2022-09-24T09:00:54;3.35;;;1.10;;
14292;SDS011;62290;59.420;17.842;2022-09-24T09:03:29;1.80;;;1.02;;
14292;SDS011;62290;59.420;17.842;2022-09-24T09:06:04;4.45;;;1.63;;
14292;SDS011;62290;59.420;17.842;2022-09-24T09:08:41;2.55;;;0.95;;
14292;SDS011;62290;59.420;17.842;2022-09-24T09:11:32;3.28;;;0.95;;
14292;SDS011;62290;59.420;17.842;2022-09-24T09:14:03;1.67;;;0.70;;
14292;SDS011;62290;59.420;17.842;2022-09-24T09:16:40;4.95;;;1.10;;
14292;SDS011;62290;59.420;17.842;2022-09-24T09:19:15;3.20;;;1.00;;
14292;SDS011;62290;59.420;17.842;2022-09-24T09:21:44;1.40;;;1.00;;
14292;SDS011;62290;59.420;17.842;2022-09-24T09:24:18;2.80;;;1.17;;
14292;SDS011;62290;59.420;17.842;2022-09-24T09:26:49;1.55;;;0.80;;
14292;SDS011;62290;59.420;17.842;2022-09-24T09:29:21;2.05;;;1.10;;
14292;SDS011;62290;59.420;17.842;2022-09-24T09:31:57;2.22;;;1.00;;
14292;SDS011;62290;59.420;17.842;2022-09-24T09:34:53;2.25;;;1.05;;
14292;SDS011;62290;59.420;17.842;2022-09-24T09:37:32;5.43;;;1.60;;
14292;SDS011;62290;59.420;17.842;2022-09-24T09:40:09;6.00;;;1.25;;
14292;SDS011;62290;59.420;17.842;2022-09-24T09:42:58;4.75;;;1.10;;
14292;SDS011;62290;59.420;17.842;2022-09-24T09:45:29;4.35;;;1.20;;
14292;SDS011;62290;59.420;17.842;2022-09-24T09:48:04;15.35;;;2.33;;
14292;SDS011;62290;59.420;17.842;2022-09-24T09:50:40;9.88;;;2.10;;
14292;SDS011;62290;59.420;17.842;2022-09-24T09:53:17;8.20;;;2.97;;
14292;SDS011;62290;59.420;17.842;2022-09-24T09:55:50;447.73;;;137.70;;
14292;SDS011;62290;59.420;17.842;2022-09-24T09:58:21;302.38;;;89.32;;
14292;SDS011;62290;59.420;17.842;2022-09-24T10:00:50;136.38;;;40.42;;
14292;SDS011;62290;59.420;17.842;2022-09-24T10:03:20;86.80;;;26.98;;
14292;SDS011;62290;59.420;17.842;2022-09-24T10:05:52;60.30;;;20.45;;
14292;SDS011;62290;59.420;17.842;2022-09-24T10:08:23;67.82;;;21.50;;
14292;SDS011;62290;59.420;17.842;2022-09-24T10:10:52;34.58;;;13.50;;
14292;SDS011;62290;59.420;17.842;2022-09-24T10:13:21;27.15;;;10.45;;
14292;SDS011;62290;59.420;17.842;2022-09-24T10:15:51;23.65;;;9.05;;
14292;SDS011;62290;59.420;17.842;2022-09-24T10:18:23;28.05;;;10.63;;
14292;SDS011;62290;59.420;17.842;2022-09-24T10:20:58;29.67;;;12.85;;
14292;SDS011;62290;59.420;17.842;2022-09-24T10:23:32;28.20;;;11.07;;
14292;SDS011;62290;59.420;17.842;2022-09-24T10:26:02;24.65;;;9.43;;
14292;SDS011;62290;59.420;17.842;2022-09-24T10:28:31;10.60;;;5.22;;
14292;SDS011;62290;59.420;17.842;2022-09-24T10:31:19;12.80;;;7.32;;
14292;SDS011;62290;59.420;17.842;2022-09-24T10:33:49;12.98;;;5.97;;
14292;SDS011;62290;59.420;17.842;2022-09-24T10:36:22;7.65;;;4.40;;
14292;SDS011;62290;59.420;17.842;2022-09-24T10:39:00;13.65;;;4.20;;
14292;SDS011;62290;59.420;17.842;2022-09-24T10:41:30;7.03;;;3.05;;
14292;SDS011;62290;59.420;17.842;2022-09-24T10:44:00;4.93;;;2.78;;
14292;SDS011;62290;59.420;17.842;2022-09-24T10:46:46;9.52;;;2.97;;
14292;SDS011;62290;59.420;17.842;2022-09-24T10:49:26;7.93;;;2.30;;
14292;SDS011;62290;59.420;17.842;2022-09-24T10:52:05;8.40;;;2.00;;
14292;SDS011;62290;59.420;17.842;2022-09-24T10:54:43;3.75;;;1.92;;
14292;SDS011;62290;59.420;17.842;2022-09-24T10:57:27;3.17;;;1.85;;
14292;SDS011;62290;59.420;17.842;2022-09-24T11:00:02;7.15;;;1.80;;
14292;SDS011;62290;59.420;17.842;2022-09-24T11:05:35;3.65;;;1.20;;
14292;SDS011;62290;59.420;17.842;2022-09-24T11:08:12;4.07;;;1.52;;
14292;SDS011;62290;59.420;17.842;2022-09-24T11:10:50;3.33;;;1.48;;
14292;SDS011;62290;59.420;17.842;2022-09-24T11:13:30;4.22;;;1.50;;
14292;SDS011;62290;59.420;17.842;2022-09-24T11:16:29;5.60;;;1.70;;
14292;SDS011;62290;59.420;17.842;2022-09-24T11:19:12;6.28;;;1.33;;
14292;SDS011;62290;59.420;17.842;2022-09-24T11:21:57;9.32;;;1.50;;
14292;SDS011;62290;59.420;17.842;2022-09-24T11:24:38;6.88;;;2.13;;
14292;SDS011;62290;59.420;17.842;2022-09-24T11:27:22;2.17;;;1.08;;
14292;SDS011;62290;59.420;17.842;2022-09-24T11:30:07;6.47;;;1.40;;
14292;SDS011;62290;59.420;17.842;2022-09-24T11:32:41;4.47;;;1.58;;
14292;SDS011;62290;59.420;17.842;2022-09-24T11:35:23;2.75;;;1.27;;
14292;SDS011;62290;59.420;17.842;2022-09-24T11:38:08;4.13;;;0.98;;
14292;SDS011;62290;59.420;17.842;2022-09-24T11:40:49;4.95;;;1.42;;
14292;SDS011;62290;59.420;17.842;2022-09-24T11:43:39;3.70;;;1.27;;
14292;SDS011;62290;59.420;17.842;2022-09-24T11:46:26;4.03;;;1.05;;
14292;SDS011;62290;59.420;17.842;2022-09-24T11:49:13;4.63;;;1.52;;
14292;SDS011;62290;59.420;17.842;2022-09-24T11:51:55;9.18;;;1.65;;
14292;SDS011;62290;59.420;17.842;2022-09-24T11:54:30;7.70;;;1.08;;
14292;SDS011;62290;59.420;17.842;2022-09-24T11:57:07;3.67;;;1.10;;
14292;SDS011;62290;59.420;17.842;2022-09-24T11:59:43;2.13;;;0.90;;
14292;SDS011;62290;59.420;17.842;2022-09-24T12:02:17;3.85;;;1.23;;
14292;SDS011;62290;59.420;17.842;2022-09-24T12:04:53;7.07;;;1.40;;
14292;SDS011;62290;59.420;17.842;2022-09-24T12:07:27;5.13;;;1.02;;
14292;SDS011;62290;59.420;17.842;2022-09-24T12:10:01;9.15;;;1.20;;
14292;SDS011;62290;59.420;17.842;2022-09-24T12:12:41;4.35;;;1.23;;
14292;SDS011;62290;59.420;17.842;2022-09-24T12:15:14;6.50;;;1.50;;
14292;SDS011;62290;59.420;17.842;2022-09-24T12:17:48;3.60;;;1.52;;
14292;SDS011;62290;59.420;17.842;2022-09-24T12:20:24;5.32;;;1.48;;
14292;SDS011;62290;59.420;17.842;2022-09-24T12:22:56;3.53;;;1.15;;
14292;SDS011;62290;59.420;17.842;2022-09-24T12:25:31;6.07;;;1.40;;
14292;SDS011;62290;59.420;17.842;2022-09-24T12:28:08;3.25;;;1.08;;
14292;SDS011;62290;59.420;17.842;2022-09-24T12:30:39;5.78;;;1.23;;
14292;SDS011;62290;59.420;17.842;2022-09-24T12:33:44;2.95;;;1.10;;
14292;SDS011;62290;59.420;17.842;2022-09-24T12:36:23;2.83;;;1.13;;
14292;SDS011;62290;59.420;17.842;2022-09-24T12:39:00;1.77;;;1.02;;
14292;SDS011;62290;59.420;17.842;2022-09-24T12:41:31;4.47;;;1.08;;
14292;SDS011;62290;59.420;17.842;2022-09-24T12:44:04;3.25;;;0.93;;
14292;SDS011;62290;59.420;17.842;2022-09-24T12:46:43;3.05;;;1.23;;
14292;SDS011;62290;59.420;17.842;2022-09-24T12:49:16;1.98;;;1.05;;
14292;SDS011;62290;59.420;17.842;2022-09-24T12:51:52;1.67;;;0.82;;
14292;SDS011;62290;59.420;17.842;2022-09-24T12:54:22;5.63;;;1.67;;
14292;SDS011;62290;59.420;17.842;2022-09-24T12:57:03;7.28;;;1.30;;
14292;SDS011;62290;59.420;17.842;2022-09-24T12:59:44;2.92;;;1.13;;
14292;SDS011;62290;59.420;17.842;2022-09-24T13:02:14;2.08;;;0.90;;
14292;SDS011;62290;59.420;17.842;2022-09-24T13:04:49;2.30;;;0.93;;
14292;SDS011;62290;59.420;17.842;2022-09-24T13:07:30;6.28;;;1.20;;
14292;SDS011;62290;59.420;17.842;2022-09-24T13:10:20;3.83;;;1.27;;
14292;SDS011;62290;59.420;17.842;2022-09-24T13:12:50;1.40;;;0.80;;
14292;SDS011;62290;59.420;17.842;2022-09-24T13:15:25;4.07;;;1.00;;
14292;SDS011;62290;59.420;17.842;2022-09-24T13:18:03;3.58;;;1.00;;
14292;SDS011;62290;59.420;17.842;2022-09-24T13:20:43;2.65;;;1.20;;
14292;SDS011;62290;59.420;17.842;2022-09-24T13:23:28;2.13;;;1.08;;
14292;SDS011;62290;59.420;17.842;2022-09-24T13:26:01;2.92;;;1.60;;
14292;SDS011;62290;59.420;17.842;2022-09-24T13:28:31;1.17;;;1.08;;
14292;SDS011;62290;59.420;17.842;2022-09-24T13:31:13;2.17;;;1.30;;
14292;SDS011;62290;59.420;17.842;2022-09-24T13:33:49;4.07;;;1.10;;
14292;SDS011;62290;59.420;17.842;2022-09-24T13:36:22;2.67;;;1.25;;
14292;SDS011;62290;59.420;17.842;2022-09-24T13:38:55;1.70;;;0.93;;
14292;SDS011;62290;59.420;17.842;2022-09-24T13:41:28;1.70;;;0.88;;
14292;SDS011;62290;59.420;17.842;2022-09-24T13:44:10;3.00;;;1.33;;
14292;SDS011;62290;59.420;17.842;2022-09-24T13:46:45;2.65;;;1.05;;
14292;SDS011;62290;59.420;17.842;2022-09-24T13:49:17;1.88;;;0.90;;
14292;SDS011;62290;59.420;17.842;2022-09-24T13:51:51;1.85;;;0.80;;
14292;SDS011;62290;59.420;17.842;2022-09-24T13:54:28;1.67;;;0.82;;
14292;SDS011;62290;59.420;17.842;2022-09-24T13:57:01;1.10;;;0.90;;
14292;SDS011;62290;59.420;17.842;2022-09-24T13:59:37;3.33;;;1.10;;
14292;SDS011;62290;59.420;17.842;2022-09-24T14:05:00;1.35;;;0.80;;
14292;SDS011;62290;59.420;17.842;2022-09-24T14:07:28;2.38;;;1.70;;
14292;SDS011;62290;59.420;17.842;2022-09-24T14:10:00;1.95;;;1.10;;
14292;SDS011;62290;59.420;17.842;2022-09-24T14:12:30;1.85;;;1.30;;
14292;SDS011;62290;59.420;17.842;2022-09-24T14:14:57;2.50;;;1.15;;
14292;SDS011;62290;59.420;17.842;2022-09-24T14:17:26;1.85;;;0.85;;
14292;SDS011;62290;59.420;17.842;2022-09-24T14:19:54;3.13;;;1.42;;
14292;SDS011;62290;59.420;17.842;2022-09-24T14:22:25;3.47;;;1.08;;
14292;SDS011;62290;59.420;17.842;2022-09-24T14:24:56;1.63;;;0.95;;
14292;SDS011;62290;59.420;17.842;2022-09-24T14:27:29;5.15;;;1.38;;
14292;SDS011;62290;59.420;17.842;2022-09-24T14:29:59;7.30;;;2.13;;
14292;SDS011;62290;59.420;17.842;2022-09-24T14:32:29;4.88;;;1.98;;
14292;SDS011;62290;59.420;17.842;2022-09-24T14:35:00;9.20;;;2.05;;
14292;SDS011;62290;59.420;17.842;2022-09-24T14:37:33;5.13;;;1.77;;
14292;SDS011;62290;59.420;17.842;2022-09-24T14:40:05;6.43;;;1.83;;
14292;SDS011;62290;59.420;17.842;2022-09-24T14:42:39;6.72;;;1.65;;
14292;SDS011;62290;59.420;17.842;2022-09-24T14:45:16;2.20;;;1.10;;
14292;SDS011;62290;59.420;17.842;2022-09-24T14:47:46;4.93;;;1.60;;
14292;SDS011;62290;59.420;17.842;2022-09-24T14:50:26;6.53;;;1.60;;
14292;SDS011;62290;59.420;17.842;2022-09-24T14:53:09;4.47;;;1.23;;
14292;SDS011;62290;59.420;17.842;2022-09-24T14:55:39;1.75;;;1.20;;
14292;SDS011;62290;59.420;17.842;2022-09-24T14:58:21;3.92;;;1.10;;
14292;SDS011;62290;59.420;17.842;2022-09-24T15:00:51;3.13;;;1.20;;
14292;SDS011;62290;59.420;17.842;2022-09-24T15:03:25;4.70;;;1.33;;
14292;SDS011;62290;59.420;17.842;2022-09-24T15:06:06;6.47;;;1.42;;
14292;SDS011;62290;59.420;17.842;2022-09-24T15:08:51;2.65;;;1.20;;
14292;SDS011;62290;59.420;17.842;2022-09-24T15:11:23;3.00;;;2.15;;
14292;SDS011;62290;59.420;17.842;2022-09-24T15:13:57;2.95;;;1.60;;